Time;durP1;ratioP1;P1;durP2;ratioP2;P2;SDS_P1;SDS_P2;PMS_P1;PMS_P2;Temp;Humidity;BMP_temperature;BMP_pressure;BME280_temperature;BME280_humidity;BME280_pressure;Samples;Min_cycle;Max_cycle;Signal;HPM_P1;HPM_P2
2020/12/14 00:00:52;;;;;;;6.50;3.10;;;7.40;99.90;;;;;;3626820;39;20263;-76
2020/12/14 00:03:20;;;;;;;5.90;3.15;;;7.50;99.90;;;;;;3621292;39;20255;-76
2020/12/14 00:05:46;;;;;;;4.35;2.75;;;7.50;99.90;;;;;;3623688;39;20347;-76
2020/12/14 00:08:13;;;;;;;8.68;3.58;;;7.50;99.90;;;;;;3637004;31;20347;-76
2020/12/14 00:10:39;;;;;;;7.75;2.75;;;7.40;99.90;;;;;;3622536;39;20252;-76
2020/12/14 00:13:05;;;;;;;6.97;2.78;;;7.40;99.90;;;;;;3624108;39;20252;-76
2020/12/14 00:15:32;;;;;;;2.80;2.58;;;7.50;99.90;;;;;;3623571;39;20470;-76
2020/12/14 00:17:58;;;;;;;2.67;2.10;;;7.50;99.90;;;;;;3622201;39;20347;-76
2020/12/14 00:20:26;;;;;;;5.88;2.70;;;7.50;99.90;;;;;;3625850;39;20351;-76
2020/12/14 00:22:52;;;;;;;3.90;2.50;;;7.50;99.90;;;;;;3628291;39;20268;-76
2020/12/14 00:25:18;;;;;;;4.28;2.65;;;7.50;99.90;;;;;;3626503;39;20261;-76
2020/12/14 00:27:45;;;;;;;10.90;2.78;;;7.50;99.90;;;;;;3626945;39;20255;-76
2020/12/14 00:30:11;;;;;;;4.25;2.45;;;7.60;99.90;;;;;;3629828;39;20331;-76
2020/12/14 00:32:38;;;;;;;5.05;2.92;;;7.50;99.90;;;;;;3628048;39;20275;-75
2020/12/14 00:35:04;;;;;;;4.22;2.35;;;7.50;99.90;;;;;;3622848;39;20355;-76
2020/12/14 00:37:32;;;;;;;5.32;2.50;;;7.60;99.90;;;;;;3624838;32;20425;-75
2020/12/14 00:39:58;;;;;;;3.15;2.13;;;7.60;99.90;;;;;;3621304;39;20250;-75
2020/12/14 00:42:25;;;;;;;5.72;2.47;;;7.70;99.90;;;;;;3624910;39;20263;-76
2020/12/14 00:44:51;;;;;;;5.35;2.10;;;7.70;99.90;;;;;;3621848;39;20279;-76
2020/12/14 00:47:18;;;;;;;3.58;2.22;;;7.80;99.90;;;;;;3621549;39;20320;-76
2020/12/14 00:49:44;;;;;;;4.78;2.22;;;7.80;99.90;;;;;;3626280;39;20368;-75
2020/12/14 00:52:11;;;;;;;6.28;2.60;;;7.80;99.90;;;;;;3628554;39;20268;-76
2020/12/14 00:54:38;;;;;;;5.18;2.50;;;7.80;99.90;;;;;;3627944;39;20256;-75
2020/12/14 00:57:05;;;;;;;5.28;3.08;;;7.80;99.90;;;;;;3627882;39;20819;-75
2020/12/14 00:59:31;;;;;;;5.60;2.83;;;7.80;99.90;;;;;;3629686;31;20347;-75
2020/12/14 01:01:58;;;;;;;3.35;2.17;;;7.80;99.90;;;;;;3628635;39;20259;-75
2020/12/14 01:04:24;;;;;;;7.80;2.92;;;7.80;99.90;;;;;;3627700;39;20266;-75
2020/12/14 01:06:55;;;;;;;3.17;2.55;;;7.80;99.90;;;;;;3626537;39;20267;-75
2020/12/14 01:09:21;;;;;;;3.25;2.08;;;7.80;99.90;;;;;;3633592;31;20252;-75
2020/12/14 01:11:49;;;;;;;4.70;2.40;;;7.80;99.90;;;;;;3621802;39;20375;-75
2020/12/14 01:14:15;;;;;;;7.45;2.38;;;7.80;99.90;;;;;;3626038;39;20263;-75
2020/12/14 01:16:42;;;;;;;5.88;2.58;;;7.80;99.90;;;;;;3621083;39;20371;-75
2020/12/14 01:19:09;;;;;;;3.08;2.78;;;7.80;99.90;;;;;;3623527;39;20295;-75
2020/12/14 01:21:35;;;;;;;5.05;2.30;;;7.80;99.90;;;;;;3627844;39;20336;-75
2020/12/14 01:24:02;;;;;;;6.43;2.20;;;7.80;99.90;;;;;;3625334;39;20804;-75
2020/12/14 01:26:28;;;;;;;3.35;2.50;;;7.80;99.90;;;;;;3625829;39;20255;-76
2020/12/14 01:28:56;;;;;;;5.63;2.40;;;7.80;99.90;;;;;;3629246;39;20243;-76
2020/12/14 01:31:23;;;;;;;3.08;2.35;;;7.80;99.90;;;;;;3625382;39;20747;-76
2020/12/14 01:33:50;;;;;;;4.32;2.65;;;7.80;99.90;;;;;;3625310;39;20260;-76
2020/12/14 01:36:16;;;;;;;3.20;2.20;;;7.80;99.90;;;;;;3627557;39;20672;-76
2020/12/14 01:38:42;;;;;;;3.95;2.05;;;7.80;99.90;;;;;;3621375;39;20690;-76
2020/12/14 01:41:09;;;;;;;4.10;2.47;;;7.90;99.90;;;;;;3625539;39;20283;-76
2020/12/14 01:43:35;;;;;;;4.80;2.47;;;7.90;99.90;;;;;;3624134;39;20331;-76
2020/12/14 01:46:03;;;;;;;4.22;2.08;;;7.90;99.90;;;;;;3620716;39;20345;-76
2020/12/14 01:48:29;;;;;;;8.40;2.13;;;8.00;99.90;;;;;;3628163;31;20351;-76
2020/12/14 01:50:56;;;;;;;5.20;2.20;;;7.90;99.90;;;;;;3621921;39;20371;-76
2020/12/14 01:53:22;;;;;;;4.70;2.55;;;7.90;99.90;;;;;;3629097;39;20303;-76
2020/12/14 01:55:55;;;;;;;11.38;2.50;;;7.90;99.90;;;;;;3623988;39;20344;-76
2020/12/14 01:58:22;;;;;;;12.52;2.00;;;7.90;99.90;;;;;;3626655;39;20286;-76
2020/12/14 02:00:48;;;;;;;5.85;2.53;;;7.90;99.90;;;;;;3623880;39;20260;-76
2020/12/14 02:03:16;;;;;;;4.00;1.77;;;7.90;99.90;;;;;;3627318;39;20351;-76
2020/12/14 02:05:42;;;;;;;10.23;2.38;;;7.80;99.90;;;;;;3626075;39;20780;-76
2020/12/14 02:08:09;;;;;;;4.90;2.13;;;7.80;99.90;;;;;;3622445;39;20264;-76
2020/12/14 02:10:35;;;;;;;5.05;2.35;;;7.80;99.90;;;;;;3623569;39;20255;-76
2020/12/14 02:13:02;;;;;;;4.63;1.95;;;7.80;99.90;;;;;;3622043;39;20331;-76
2020/12/14 02:15:29;;;;;;;7.00;2.22;;;7.80;99.90;;;;;;3621543;39;20252;-76
2020/12/14 02:17:55;;;;;;;4.35;1.88;;;7.70;99.90;;;;;;3620668;39;20307;-76
2020/12/14 02:20:22;;;;;;;7.38;2.28;;;7.70;99.90;;;;;;3624717;39;20262;-76
2020/12/14 02:22:49;;;;;;;6.07;2.80;;;7.70;99.90;;;;;;3625887;39;20355;-76
2020/12/14 02:25:16;;;;;;;4.18;2.25;;;7.70;99.90;;;;;;3626237;32;20353;-76
2020/12/14 02:27:43;;;;;;;3.28;2.35;;;7.70;99.90;;;;;;3625674;39;20260;-76
2020/12/14 02:30:10;;;;;;;4.28;2.45;;;7.70;99.90;;;;;;3627952;39;20255;-76
2020/12/14 02:32:37;;;;;;;2.10;1.90;;;7.80;99.90;;;;;;3621574;39;20302;-76
2020/12/14 02:35:04;;;;;;;3.75;2.05;;;7.80;99.90;;;;;;3624502;39;20244;-76
2020/12/14 02:37:32;;;;;;;6.82;2.10;;;7.80;99.90;;;;;;3625497;39;20299;-76
2020/12/14 02:39:58;;;;;;;4.32;2.15;;;7.80;99.90;;;;;;3624005;39;20307;-76
2020/12/14 02:42:26;;;;;;;3.95;2.42;;;7.80;99.90;;;;;;3626126;39;20336;-76
2020/12/14 02:44:53;;;;;;;7.95;2.13;;;7.70;99.90;;;;;;3623430;39;20264;-76
2020/12/14 02:47:19;;;;;;;2.38;2.15;;;7.70;99.90;;;;;;3621608;39;20277;-76
2020/12/14 02:49:47;;;;;;;4.10;1.98;;;7.70;99.90;;;;;;3629217;39;20307;-76
2020/12/14 02:52:14;;;;;;;4.93;2.22;;;7.60;99.90;;;;;;3628246;39;20335;-76
2020/12/14 02:54:42;;;;;;;2.60;2.40;;;7.60;99.90;;;;;;3626446;39;20340;-75
2020/12/14 02:57:09;;;;;;;4.97;1.88;;;7.60;99.90;;;;;;3626393;39;20373;-75
2020/12/14 02:59:36;;;;;;;5.65;1.88;;;7.60;99.90;;;;;;3628088;39;20272;-76
2020/12/14 03:02:03;;;;;;;3.13;1.65;;;7.60;99.90;;;;;;3625562;31;20346;-76
2020/12/14 03:04:30;;;;;;;5.95;1.58;;;7.60;99.90;;;;;;3626615;39;20423;-76
2020/12/14 03:06:57;;;;;;;2.33;1.70;;;7.70;99.90;;;;;;3623657;39;20247;-76
2020/12/14 03:09:23;;;;;;;6.57;2.17;;;7.70;99.90;;;;;;3626583;39;20267;-76
2020/12/14 03:11:50;;;;;;;6.90;2.10;;;7.70;99.90;;;;;;3623189;39;20255;-76
2020/12/14 03:14:17;;;;;;;7.53;1.88;;;7.70;99.90;;;;;;3623757;39;20333;-76
2020/12/14 03:16:47;;;;;;;3.10;2.00;;;7.70;99.90;;;;;;3623659;39;20256;-76
2020/12/14 03:19:14;;;;;;;9.43;2.70;;;7.80;99.90;;;;;;3626151;39;20366;-76
2020/12/14 03:21:40;;;;;;;3.38;2.10;;;7.80;99.90;;;;;;3624619;39;20343;-76
2020/12/14 03:24:07;;;;;;;2.65;1.55;;;7.80;99.90;;;;;;3625611;39;20248;-76
2020/12/14 03:26:33;;;;;;;4.65;2.53;;;7.90;99.90;;;;;;3626435;39;20252;-76
2020/12/14 03:29:00;;;;;;;3.35;2.00;;;7.90;99.90;;;;;;3625271;39;20379;-75
2020/12/14 03:31:27;;;;;;;4.75;2.25;;;7.90;99.90;;;;;;3623525;39;20287;-76
2020/12/14 03:33:55;;;;;;;3.90;2.28;;;7.90;99.90;;;;;;3627821;39;20247;-75
2020/12/14 03:36:22;;;;;;;4.40;2.25;;;7.90;99.90;;;;;;3624586;39;20307;-75
2020/12/14 03:38:49;;;;;;;5.53;2.00;;;7.90;99.90;;;;;;3624394;39;20259;-75
2020/12/14 03:41:15;;;;;;;2.80;2.00;;;7.90;99.90;;;;;;3626047;39;20370;-76
2020/12/14 03:43:42;;;;;;;4.80;1.80;;;7.90;99.90;;;;;;3625170;39;20260;-76
2020/12/14 03:46:14;;;;;;;3.90;2.13;;;7.90;99.90;;;;;;3636477;31;20527;-76
2020/12/14 03:48:41;;;;;;;8.98;2.38;;;7.90;99.90;;;;;;3630050;39;20775;-76
2020/12/14 03:51:09;;;;;;;2.22;2.00;;;7.90;99.90;;;;;;3625221;39;20275;-76
2020/12/14 03:53:36;;;;;;;6.88;2.20;;;7.90;99.90;;;;;;3650799;32;20236;-76
2020/12/14 03:56:02;;;;;;;4.60;2.13;;;8.00;99.90;;;;;;3622144;39;20255;-76
2020/12/14 03:58:29;;;;;;;5.03;2.50;;;8.00;99.90;;;;;;3625807;39;20263;-75
2020/12/14 04:00:55;;;;;;;2.42;1.90;;;8.00;99.90;;;;;;3628751;39;20259;-76
2020/12/14 04:03:23;;;;;;;2.97;2.13;;;8.00;99.90;;;;;;3627454;39;20336;-75
2020/12/14 04:05:49;;;;;;;2.55;1.98;;;8.00;99.90;;;;;;3627037;39;20377;-75
2020/12/14 04:08:17;;;;;;;5.20;1.83;;;8.00;99.90;;;;;;3633064;31;20252;-75
2020/12/14 04:10:44;;;;;;;3.92;2.00;;;8.00;99.90;;;;;;3623880;39;20283;-76
2020/12/14 04:13:10;;;;;;;4.43;2.20;;;8.00;99.90;;;;;;3628772;31;20925;-75
2020/12/14 04:15:37;;;;;;;3.78;1.80;;;8.00;99.90;;;;;;3626573;39;20268;-76
2020/12/14 04:18:04;;;;;;;4.40;2.05;;;8.00;99.90;;;;;;3626415;39;20344;-75
2020/12/14 04:20:30;;;;;;;9.40;2.00;;;8.00;99.90;;;;;;3627791;39;20343;-75
2020/12/14 04:22:57;;;;;;;4.80;1.70;;;8.00;99.90;;;;;;3627694;39;20834;-75
2020/12/14 04:25:25;;;;;;;5.32;1.95;;;8.00;99.90;;;;;;3626482;39;20271;-75
2020/12/14 04:27:51;;;;;;;4.93;1.90;;;8.10;99.90;;;;;;3624910;39;20251;-75
2020/12/14 04:30:18;;;;;;;4.22;1.48;;;8.00;99.90;;;;;;3626251;39;20259;-76
2020/12/14 04:32:46;;;;;;;3.00;1.40;;;8.10;99.90;;;;;;3626581;39;20283;-76
2020/12/14 04:35:13;;;;;;;4.82;1.85;;;8.10;99.90;;;;;;3624982;39;20328;-75
2020/12/14 04:37:39;;;;;;;5.18;2.10;;;8.10;99.90;;;;;;3624076;39;20283;-75
2020/12/14 04:40:06;;;;;;;4.20;1.67;;;8.10;99.90;;;;;;3623053;39;20255;-76
2020/12/14 04:42:34;;;;;;;4.82;1.90;;;8.10;99.90;;;;;;3622574;39;20346;-75
2020/12/14 04:45:00;;;;;;;1.75;1.48;;;8.10;99.90;;;;;;3620909;39;20293;-75
2020/12/14 04:47:28;;;;;;;4.53;2.05;;;8.10;99.90;;;;;;3621462;39;20341;-76
2020/12/14 04:49:56;;;;;;;4.95;2.00;;;8.00;99.90;;;;;;3626383;39;20259;-76
2020/12/14 04:52:24;;;;;;;5.20;2.28;;;8.00;99.90;;;;;;3627367;39;20270;-76
2020/12/14 04:54:50;;;;;;;3.25;1.60;;;8.00;99.90;;;;;;3622965;39;20275;-76
2020/12/14 04:57:21;;;;;;;5.97;2.45;;;8.00;99.90;;;;;;3623832;39;20380;-75
2020/12/14 04:59:50;;;;;;;6.90;1.85;;;8.10;99.90;;;;;;3624979;39;20289;-76
2020/12/14 05:02:17;;;;;;;4.45;2.00;;;8.10;99.90;;;;;;3623711;39;20286;-76
2020/12/14 05:04:44;;;;;;;6.63;2.15;;;8.10;99.90;;;;;;3626965;31;20407;-76
2020/12/14 05:07:12;;;;;;;2.28;1.98;;;8.10;99.90;;;;;;3624850;39;20275;-76
2020/12/14 05:09:40;;;;;;;1.92;1.70;;;8.20;99.90;;;;;;3622652;39;20272;-76
2020/12/14 05:12:18;;;;;;;3.70;1.85;;;8.20;99.90;;;;;;3624537;39;20274;-76
2020/12/14 05:14:45;;;;;;;5.35;1.90;;;8.20;99.90;;;;;;3625961;39;20259;-76
2020/12/14 05:17:23;;;;;;;2.90;2.08;;;8.10;99.90;;;;;;3625129;39;20276;-76
2020/12/14 05:19:50;;;;;;;5.90;2.22;;;8.10;99.90;;;;;;3626152;39;20274;-77
2020/12/14 05:22:17;;;;;;;2.08;1.73;;;8.10;99.90;;;;;;3624995;39;20263;-76
2020/12/14 05:24:49;;;;;;;2.35;2.03;;;8.10;99.90;;;;;;3625454;39;20248;-76
2020/12/14 05:27:32;;;;;;;3.40;2.70;;;8.10;99.90;;;;;;3624057;39;20256;-76
2020/12/14 05:29:58;;;;;;;2.72;1.98;;;8.00;99.90;;;;;;3625346;32;20345;-77
2020/12/14 05:32:26;;;;;;;4.43;2.13;;;8.00;99.90;;;;;;3626455;39;20259;-76
2020/12/14 05:34:53;;;;;;;6.78;1.90;;;8.00;99.90;;;;;;3624979;39;20732;-76
2020/12/14 05:37:19;;;;;;;3.83;1.95;;;8.00;99.90;;;;;;3625683;39;20256;-77
2020/12/14 05:39:46;;;;;;;5.95;1.98;;;8.00;99.90;;;;;;3620924;39;20398;-76
2020/12/14 05:42:15;;;;;;;2.08;1.40;;;8.00;99.90;;;;;;3624455;39;20264;-76
2020/12/14 05:44:43;;;;;;;4.18;1.40;;;8.00;99.90;;;;;;3620837;39;20259;-76
2020/12/14 05:47:28;;;;;;;3.78;1.83;;;8.10;99.90;;;;;;3624632;39;20255;-76
2020/12/14 05:49:56;;;;;;;2.67;1.40;;;8.10;99.90;;;;;;3622061;39;20347;-76
2020/12/14 05:52:23;;;;;;;2.95;1.35;;;8.10;99.90;;;;;;3626009;39;20252;-75
2020/12/14 05:54:54;;;;;;;10.32;2.33;;;8.20;99.90;;;;;;3627294;39;20255;-76
2020/12/14 05:57:29;;;;;;;3.63;2.17;;;8.20;99.90;;;;;;3627641;39;20280;-77
2020/12/14 06:00:01;;;;;;;5.28;1.50;;;8.30;99.90;;;;;;3624920;39;20290;-76
2020/12/14 06:02:29;;;;;;;3.78;1.60;;;8.30;99.90;;;;;;3626520;39;20348;-77
2020/12/14 06:04:57;;;;;;;5.57;2.30;;;8.30;99.90;;;;;;3630603;31;20263;-77
2020/12/14 06:07:28;;;;;;;3.38;1.80;;;8.30;99.90;;;;;;3622297;39;20248;-77
2020/12/14 06:10:11;;;;;;;2.45;1.60;;;8.40;99.90;;;;;;3622495;39;20291;-77
2020/12/14 06:12:41;;;;;;;2.90;1.80;;;8.30;99.90;;;;;;3620121;39;20372;-76
2020/12/14 06:15:10;;;;;;;2.42;2.22;;;8.30;99.90;;;;;;3625611;39;20352;-76
2020/12/14 06:17:38;;;;;;;3.08;1.63;;;8.30;99.90;;;;;;3651685;31;20324;-75
2020/12/14 06:20:12;;;;;;;4.80;2.03;;;8.20;99.90;;;;;;3622784;39;20263;-76
2020/12/14 06:22:42;;;;;;;2.85;1.88;;;8.30;99.90;;;;;;3623663;39;20275;-75
2020/12/14 06:25:09;;;;;;;5.18;1.60;;;8.30;99.90;;;;;;3626283;39;20265;-76
2020/12/14 06:27:36;;;;;;;3.35;1.85;;;8.30;99.90;;;;;;3626022;39;20256;-76
2020/12/14 06:30:30;;;;;;;5.10;2.10;;;8.30;99.90;;;;;;3624613;39;20288;-76
2020/12/14 06:32:59;;;;;;;2.75;1.58;;;8.40;99.90;;;;;;3652471;31;20256;-76
2020/12/14 06:35:42;;;;;;;4.47;1.88;;;8.40;99.90;;;;;;3626471;39;20357;-76
2020/12/14 06:38:09;;;;;;;2.38;1.77;;;8.40;99.90;;;;;;3624151;39;20299;-76
2020/12/14 06:40:57;;;;;;;2.50;2.10;;;8.40;99.90;;;;;;3624885;39;20327;-76
2020/12/14 06:43:31;;;;;;;2.15;2.05;;;8.40;99.90;;;;;;3620436;39;20240;-76
2020/12/14 06:45:59;;;;;;;4.53;2.13;;;8.50;99.90;;;;;;3623279;39;20244;-76
2020/12/14 06:48:36;;;;;;;2.47;1.75;;;8.50;99.90;;;;;;3625739;39;20251;-76
2020/12/14 06:51:04;;;;;;;4.80;1.75;;;8.50;99.90;;;;;;3631694;32;20267;-77
2020/12/14 06:53:44;;;;;;;3.20;2.00;;;8.60;99.90;;;;;;3625071;39;20335;-76
2020/12/14 06:56:13;;;;;;;2.25;1.95;;;8.60;99.90;;;;;;3625219;39;20263;-77
2020/12/14 06:58:41;;;;;;;3.17;2.08;;;8.60;99.90;;;;;;3626544;39;20354;-77
2020/12/14 07:01:34;;;;;;;2.13;1.73;;;8.60;99.90;;;;;;3624576;39;20260;-76
2020/12/14 07:04:03;;;;;;;5.43;1.90;;;8.50;99.90;;;;;;3625932;39;20371;-78
2020/12/14 07:06:30;;;;;;;1.98;1.77;;;8.50;99.90;;;;;;3621038;39;20252;-77
2020/12/14 07:08:57;;;;;;;2.30;1.70;;;8.50;99.90;;;;;;3634292;31;20333;-77
2020/12/14 07:11:24;;;;;;;4.82;2.00;;;8.50;99.90;;;;;;3620069;39;20263;-77
2020/12/14 07:13:52;;;;;;;3.72;1.73;;;8.50;99.90;;;;;;3620300;39;20287;-77
2020/12/14 07:16:26;;;;;;;2.75;1.70;;;8.60;99.90;;;;;;3621226;39;20328;-77
2020/12/14 07:18:54;;;;;;;1.88;1.70;;;8.50;99.90;;;;;;3622621;39;20310;-77
2020/12/14 07:21:21;;;;;;;2.38;1.60;;;8.50;99.90;;;;;;3627320;39;20283;-77
2020/12/14 07:23:48;;;;;;;2.92;1.85;;;8.40;99.90;;;;;;3627139;39;20260;-76
2020/12/14 07:26:15;;;;;;;5.27;2.10;;;8.40;99.90;;;;;;3625974;39;20201;-77
2020/12/14 07:28:47;;;;;;;2.83;2.03;;;8.40;99.90;;;;;;3626615;39;20382;-77
2020/12/14 07:31:16;;;;;;;2.22;2.05;;;8.30;99.90;;;;;;3627877;39;20748;-77
2020/12/14 07:33:51;;;;;;;2.55;1.70;;;8.30;99.90;;;;;;3625955;39;20427;-77
2020/12/14 07:36:19;;;;;;;3.33;1.83;;;8.40;99.90;;;;;;3628094;39;20263;-77
2020/12/14 07:38:50;;;;;;;3.88;2.03;;;8.40;99.90;;;;;;3623570;32;20351;-77
2020/12/14 07:41:19;;;;;;;3.50;2.20;;;8.40;99.90;;;;;;3628697;39;20355;-77
2020/12/14 07:43:48;;;;;;;3.05;2.28;;;8.30;99.90;;;;;;3626219;39;20356;-78
2020/12/14 07:46:25;;;;;;;3.83;2.03;;;8.20;99.90;;;;;;3622576;39;20243;-77
2020/12/14 07:48:58;;;;;;;3.45;2.00;;;8.20;99.90;;;;;;3625654;39;20282;-78
2020/12/14 07:51:27;;;;;;;9.95;3.13;;;8.10;99.90;;;;;;3626777;39;20760;-77
2020/12/14 07:54:02;;;;;;;5.65;1.83;;;8.10;99.90;;;;;;3627304;39;20279;-78
2020/12/14 07:56:29;;;;;;;6.03;2.63;;;8.00;99.90;;;;;;3636737;32;20271;-78
2020/12/14 07:58:55;;;;;;;2.97;1.90;;;7.90;99.90;;;;;;3626429;39;20284;-78
2020/12/14 08:01:22;;;;;;;4.30;2.00;;;7.90;99.90;;;;;;3624451;39;20236;-78
2020/12/14 08:03:49;;;;;;;3.88;2.30;;;7.90;99.90;;;;;;3628257;32;20240;-78
2020/12/14 08:06:17;;;;;;;6.68;1.80;;;7.80;99.90;;;;;;3628645;39;20336;-78
2020/12/14 08:08:48;;;;;;;5.82;2.70;;;7.80;99.90;;;;;;3625201;39;20356;-78
2020/12/14 08:11:16;;;;;;;4.05;2.70;;;7.70;99.90;;;;;;3627970;39;20239;-78
2020/12/14 08:13:45;;;;;;;4.22;2.60;;;7.80;99.90;;;;;;3626817;39;20267;-78
2020/12/14 08:16:16;;;;;;;6.88;2.50;;;7.80;99.90;;;;;;3626542;39;20283;-78
2020/12/14 08:18:46;;;;;;;7.60;3.28;;;7.80;99.90;;;;;;3646134;32;20709;-78
2020/12/14 08:21:24;;;;;;;3.30;2.53;;;7.80;99.90;;;;;;3621909;32;20244;-78
2020/12/14 08:23:52;;;;;;;4.10;2.10;;;7.90;99.90;;;;;;3625176;39;20276;-78
2020/12/14 08:26:25;;;;;;;3.72;2.45;;;7.80;99.90;;;;;;3627588;39;20340;-78
2020/12/14 08:28:58;;;;;;;4.53;2.50;;;7.80;99.90;;;;;;3623435;39;20258;-79
2020/12/14 08:31:25;;;;;;;7.80;3.58;;;7.80;99.90;;;;;;3625523;39;20267;-78
2020/12/14 08:33:52;;;;;;;5.97;2.92;;;7.90;99.90;;;;;;3626760;39;20338;-78
2020/12/14 08:36:19;;;;;;;4.82;2.15;;;7.90;99.90;;;;;;3628754;39;20287;-78
2020/12/14 08:38:46;;;;;;;10.18;2.17;;;7.90;99.90;;;;;;3627360;39;20301;-78
2020/12/14 08:41:19;;;;;;;5.50;2.53;;;8.00;99.90;;;;;;3626872;39;20279;-78
2020/12/14 08:43:46;;;;;;;3.05;2.50;;;8.00;99.90;;;;;;3628994;39;20255;-78
2020/12/14 08:46:14;;;;;;;3.08;2.30;;;8.00;99.90;;;;;;3626864;39;20252;-78
2020/12/14 08:48:48;;;;;;;3.60;2.67;;;8.00;99.90;;;;;;3626368;39;20279;-78
2020/12/14 08:51:16;;;;;;;4.88;1.92;;;8.00;99.90;;;;;;3625451;39;20285;-78
2020/12/14 08:53:44;;;;;;;5.72;2.97;;;7.90;99.90;;;;;;3630663;39;20275;-78
2020/12/14 08:56:16;;;;;;;3.13;2.55;;;8.00;99.90;;;;;;3626572;39;20276;-78
2020/12/14 08:58:54;;;;;;;3.08;2.38;;;8.00;99.90;;;;;;3626690;39;20277;-78
2020/12/14 09:01:22;;;;;;;5.20;2.30;;;8.00;99.90;;;;;;3626894;39;20398;-79
2020/12/14 09:03:53;;;;;;;8.27;3.38;;;8.00;99.90;;;;;;3629820;39;20279;-78
2020/12/14 09:06:25;;;;;;;5.75;2.60;;;8.00;99.90;;;;;;3630358;39;20282;-78
2020/12/14 09:09:05;;;;;;;8.77;2.75;;;8.00;99.90;;;;;;3627038;39;20267;-79
2020/12/14 09:11:34;;;;;;;2.90;2.42;;;8.00;99.90;;;;;;3626924;39;20236;-79
2020/12/14 09:14:03;;;;;;;3.42;2.78;;;8.00;99.90;;;;;;3629906;39;20255;-79
2020/12/14 09:16:30;;;;;;;3.10;2.15;;;8.00;99.90;;;;;;3624773;39;20255;-79
2020/12/14 09:18:57;;;;;;;2.95;1.98;;;8.10;99.90;;;;;;3626554;39;20264;-78
2020/12/14 09:21:24;;;;;;;3.97;2.67;;;8.10;99.90;;;;;;3623307;39;20255;-78
2020/12/14 09:24:14;;;;;;;6.38;2.60;;;8.10;99.90;;;;;;3638805;31;20282;-78
2020/12/14 09:26:42;;;;;;;3.97;2.50;;;8.10;99.90;;;;;;3628723;32;20275;-78
2020/12/14 09:29:09;;;;;;;4.95;2.75;;;8.10;99.90;;;;;;3635982;31;20291;-78
2020/12/14 09:31:36;;;;;;;9.63;3.40;;;8.10;99.90;;;;;;3628769;39;20256;-78
2020/12/14 09:34:03;;;;;;;8.15;2.65;;;8.10;99.90;;;;;;3626367;39;20355;-78
2020/12/14 09:36:29;;;;;;;4.22;2.55;;;8.20;99.90;;;;;;3624516;39;20332;-78
2020/12/14 09:38:56;;;;;;;3.25;2.40;;;8.30;99.90;;;;;;3624814;39;20419;-78
2020/12/14 09:41:24;;;;;;;2.72;2.35;;;8.40;99.90;;;;;;3625349;39;20334;-78
2020/12/14 09:43:51;;;;;;;4.95;2.42;;;8.40;99.90;;;;;;3626994;39;20255;-78
2020/12/14 09:46:18;;;;;;;14.52;3.65;;;8.40;99.90;;;;;;3623144;39;20255;-78
2020/12/14 09:48:44;;;;;;;3.55;2.00;;;8.40;99.90;;;;;;3623878;39;20264;-78
2020/12/14 09:51:11;;;;;;;3.92;2.17;;;8.40;99.90;;;;;;3629178;39;20903;-78
2020/12/14 09:53:38;;;;;;;2.92;2.63;;;8.50;99.90;;;;;;3628354;39;20768;-78
2020/12/14 09:56:05;;;;;;;3.83;2.67;;;8.40;99.90;;;;;;3627741;39;20372;-78
2020/12/14 09:58:31;;;;;;;5.90;3.28;;;8.50;99.90;;;;;;3627744;39;20264;-78
2020/12/14 10:00:58;;;;;;;6.45;3.03;;;8.50;99.90;;;;;;3629019;39;20331;-78
2020/12/14 10:03:25;;;;;;;6.53;3.40;;;8.50;99.90;;;;;;3644779;31;20561;-78
2020/12/14 10:05:51;;;;;;;5.25;3.53;;;8.50;99.90;;;;;;3628163;39;20251;-78
2020/12/14 10:08:18;;;;;;;4.63;3.75;;;8.50;99.90;;;;;;3627394;39;20255;-78
2020/12/14 10:10:45;;;;;;;5.80;2.67;;;8.50;99.90;;;;;;3672524;31;20713;-78
2020/12/14 10:13:12;;;;;;;5.80;3.17;;;8.40;99.90;;;;;;3628545;39;20355;-78
2020/12/14 10:15:38;;;;;;;4.80;3.20;;;8.40;99.90;;;;;;3623858;39;20342;-78
2020/12/14 10:18:05;;;;;;;8.85;4.88;;;8.40;99.90;;;;;;3630506;39;20243;-78
2020/12/14 10:20:32;;;;;;;6.30;2.90;;;8.50;99.90;;;;;;3628356;39;20279;-78
2020/12/14 10:22:58;;;;;;;7.15;3.72;;;8.50;99.90;;;;;;3633401;31;20265;-78
2020/12/14 10:25:25;;;;;;;5.60;4.07;;;8.50;99.90;;;;;;3631117;39;20374;-78
2020/12/14 10:27:52;;;;;;;6.28;3.55;;;8.50;99.90;;;;;;3625179;39;20361;-78
2020/12/14 10:30:19;;;;;;;7.20;2.92;;;8.50;99.90;;;;;;3630829;39;20275;-78
2020/12/14 10:32:46;;;;;;;11.85;6.72;;;8.60;99.90;;;;;;3630167;39;20240;-78
2020/12/14 10:35:13;;;;;;;9.18;3.35;;;8.50;99.90;;;;;;3630797;39;20313;-78
2020/12/14 10:37:40;;;;;;;10.20;3.17;;;8.50;99.90;;;;;;3629549;39;20275;-79
2020/12/14 10:40:07;;;;;;;6.28;3.55;;;8.50;99.90;;;;;;3627241;39;20267;-79
2020/12/14 10:42:34;;;;;;;4.30;3.20;;;8.50;99.90;;;;;;3630963;39;20224;-79
2020/12/14 10:45:01;;;;;;;4.50;3.95;;;8.50;99.90;;;;;;3631223;39;20383;-79
2020/12/14 10:47:28;;;;;;;8.02;3.20;;;8.50;99.90;;;;;;3629347;39;20279;-79
2020/12/14 10:49:54;;;;;;;5.43;3.03;;;8.50;99.90;;;;;;3627846;39;20255;-79
2020/12/14 10:52:22;;;;;;;3.50;3.20;;;8.50;99.90;;;;;;3626108;39;20311;-79
2020/12/14 10:54:50;;;;;;;6.50;2.83;;;8.50;99.90;;;;;;3624860;39;20228;-79
2020/12/14 10:57:17;;;;;;;5.28;2.83;;;8.60;99.90;;;;;;3625120;39;20272;-79
2020/12/14 10:59:43;;;;;;;4.85;4.25;;;8.60;99.90;;;;;;3630570;39;20255;-79
2020/12/14 11:11:31;;;;;;;5.38;3.35;;;8.50;99.90;;;;;;3634929;31;20263;-77
2020/12/14 11:13:59;;;;;;;6.00;3.80;;;8.60;99.90;;;;;;3631101;39;20269;-77
2020/12/14 11:16:26;;;;;;;8.30;3.90;;;8.70;99.90;;;;;;3629376;39;20275;-77
2020/12/14 11:18:52;;;;;;;6.95;3.53;;;8.80;99.90;;;;;;3634149;39;20721;-77
2020/12/14 11:21:19;;;;;;;7.53;4.22;;;8.80;99.90;;;;;;3630946;39;20247;-77
2020/12/14 11:23:45;;;;;;;8.88;3.72;;;8.90;99.90;;;;;;3635266;39;20364;-76
2020/12/14 11:26:12;;;;;;;7.53;4.55;;;9.00;99.90;;;;;;3633373;39;20251;-77
2020/12/14 11:28:39;;;;;;;9.35;3.70;;;9.10;99.90;;;;;;3632358;39;20283;-77
2020/12/14 11:31:07;;;;;;;28.58;15.07;;;9.10;99.90;;;;;;3633353;39;20267;-77
2020/12/14 11:33:34;;;;;;;4.80;3.35;;;9.20;99.90;;;;;;3634535;39;20273;-77
2020/12/14 11:36:01;;;;;;;6.78;4.63;;;9.30;99.90;;;;;;3636633;39;20267;-77
2020/12/14 11:38:29;;;;;;;8.85;4.60;;;9.40;99.90;;;;;;3634173;39;20363;-77
2020/12/14 11:40:56;;;;;;;28.30;12.70;;;9.40;99.90;;;;;;3635161;39;20263;-77
2020/12/14 11:43:22;;;;;;;20.75;9.90;;;9.60;99.90;;;;;;3632015;39;20335;-77
2020/12/14 11:45:50;;;;;;;6.50;4.53;;;9.70;99.90;;;;;;3632245;39;20358;-77
2020/12/14 11:48:16;;;;;;;6.65;3.50;;;9.70;99.90;;;;;;3629682;39;20347;-77
2020/12/14 11:50:43;;;;;;;8.30;2.90;;;9.80;99.90;;;;;;3631498;39;20584;-77
2020/12/14 11:53:09;;;;;;;5.15;3.17;;;9.80;99.90;;;;;;3633008;39;20335;-77
2020/12/14 11:55:36;;;;;;;6.82;2.80;;;9.90;99.90;;;;;;3639459;31;20247;-77
2020/12/14 11:58:03;;;;;;;9.02;3.83;;;9.90;99.90;;;;;;3632322;39;20267;-77
2020/12/14 12:00:29;;;;;;;6.38;2.65;;;9.90;99.90;;;;;;3634945;39;20279;-77
2020/12/14 12:02:57;;;;;;;5.97;3.78;;;9.90;99.90;;;;;;3637030;39;20247;-76
2020/12/14 12:05:23;;;;;;;6.13;2.38;;;9.90;99.90;;;;;;3632824;39;20263;-77
2020/12/14 12:07:50;;;;;;;5.30;2.53;;;10.00;99.90;;;;;;3634648;39;20278;-76
2020/12/14 12:10:17;;;;;;;8.07;2.92;;;10.00;99.90;;;;;;3630107;39;20374;-79
2020/12/14 12:12:44;;;;;;;9.20;2.88;;;10.10;99.90;;;;;;3629690;39;20279;-77
2020/12/14 12:15:15;;;;;;;6.45;2.30;;;10.10;99.90;;;;;;3625692;39;20880;-77
2020/12/14 12:17:41;;;;;;;5.38;2.53;;;10.20;99.90;;;;;;3627729;31;20260;-76
2020/12/14 12:20:09;;;;;;;3.97;2.58;;;10.20;99.90;;;;;;3627141;39;20264;-76
2020/12/14 12:22:35;;;;;;;8.77;3.13;;;10.20;99.90;;;;;;3629519;39;20776;-76
2020/12/14 12:25:03;;;;;;;3.78;2.67;;;10.20;99.90;;;;;;3626837;39;20274;-77
2020/12/14 12:27:30;;;;;;;7.80;3.00;;;10.30;99.90;;;;;;3623425;39;20358;-76
2020/12/14 12:29:58;;;;;;;6.30;2.85;;;10.20;99.90;;;;;;3627915;31;20273;-76
2020/12/14 12:32:24;;;;;;;8.80;3.45;;;10.20;99.90;;;;;;3625699;39;20724;-76
2020/12/14 12:34:51;;;;;;;2.92;2.63;;;10.20;99.90;;;;;;3625411;39;20264;-76
2020/12/14 12:37:18;;;;;;;7.10;2.30;;;10.20;99.90;;;;;;3625889;39;20367;-77
2020/12/14 12:39:44;;;;;;;4.05;2.08;;;10.20;99.90;;;;;;3621074;39;20942;-76
2020/12/14 12:42:11;;;;;;;5.97;2.80;;;10.20;99.90;;;;;;3622249;39;20657;-76
2020/12/14 12:44:37;;;;;;;3.78;2.25;;;10.20;99.90;;;;;;3625353;39;20494;-76
2020/12/14 12:47:05;;;;;;;8.25;2.03;;;10.20;99.90;;;;;;3624118;39;20287;-76
2020/12/14 12:49:32;;;;;;;3.55;2.80;;;10.30;99.90;;;;;;3625814;39;20279;-76
2020/12/14 12:52:00;;;;;;;4.05;2.47;;;10.30;99.90;;;;;;3625742;39;20255;-76
2020/12/14 12:54:27;;;;;;;2.78;2.58;;;10.30;99.90;;;;;;3623700;39;20322;-76
2020/12/14 12:56:54;;;;;;;3.47;1.92;;;10.30;99.90;;;;;;3626117;39;20268;-76
2020/12/14 12:59:21;;;;;;;9.65;2.28;;;10.30;99.90;;;;;;3623419;39;20303;-77
2020/12/14 13:01:51;;;;;;;3.88;2.00;;;10.30;99.90;;;;;;3627067;39;20248;-76
2020/12/14 13:04:18;;;;;;;2.33;2.00;;;10.30;99.90;;;;;;3627942;39;20354;-76
2020/12/14 13:06:44;;;;;;;9.30;2.88;;;10.30;99.90;;;;;;3625301;39;20252;-77
2020/12/14 13:09:11;;;;;;;5.93;2.13;;;10.30;99.90;;;;;;3624058;39;20284;-76